Terminal Aerodrome Forecast
Issued by NWS

Home | Current Version | Previous Version | Text Only | Print | Product List | Glossary On
Versions: 1 2 3 4 5 6 7 8 9 10 11 12 13 14 15 16 17 18 19 20 21 22 23 24 25
849
FTUS44 KMAF 090520
TAFFST
TAF
KFST 090520Z 0906/1006 10007KT P6SM BKN015 OVC030
     FM091600 17008KT P6SM SCT030 BKN050
     FM092100 19009KT P6SM FEW050 SCT250=

USA.gov is the U.S. government's official web portal to all federal, state and local government web resources and services.